Terminal Aerodrome Forecast
Issued by NWS

Home | Current Version | Previous Version | Graphics & Text | Print | Product List | Glossary On
Versions: 1 2 3 4 5 6 7 8 9 10 11 12 13 14 15
859
FTUS43 KTOP 011753 CCA
TAFFOE
TAF COR
KFOE 011753Z 0118/0218 31012KT P6SM SCT020 BKN035
     FM012000 33011KT P6SM BKN015=

USA.gov is the U.S. government's official web portal to all federal, state and local government web resources and services.